sensor_id;sensor_type;location;lat;lon;timestamp;P1;durP1;ratioP1;P2;durP2;ratioP2
43509;SDS011;29105;57.764;40.952;2023-03-23T00:02:14;2.65;;;0.40;;
43509;SDS011;29105;57.764;40.952;2023-03-23T00:04:39;2.67;;;0.40;;
43509;SDS011;29105;57.764;40.952;2023-03-23T00:07:07;0.85;;;0.40;;
43509;SDS011;29105;57.764;40.952;2023-03-23T00:09:33;0.52;;;0.30;;
43509;SDS011;29105;57.764;40.952;2023-03-23T00:12:00;0.90;;;0.30;;
43509;SDS011;29105;57.764;40.952;2023-03-23T00:14:31;0.77;;;0.40;;
43509;SDS011;29105;57.764;40.952;2023-03-23T00:17:09;0.90;;;0.57;;
43509;SDS011;29105;57.764;40.952;2023-03-23T00:19:38;2.13;;;0.63;;
43509;SDS011;29105;57.764;40.952;2023-03-23T00:22:13;1.05;;;0.38;;
43509;SDS011;29105;57.764;40.952;2023-03-23T00:24:40;0.55;;;0.30;;
43509;SDS011;29105;57.764;40.952;2023-03-23T00:27:06;1.42;;;0.60;;
43509;SDS011;29105;57.764;40.952;2023-03-23T00:29:34;0.98;;;0.60;;
43509;SDS011;29105;57.764;40.952;2023-03-23T00:32:00;2.00;;;0.65;;
43509;SDS011;29105;57.764;40.952;2023-03-23T00:34:27;1.60;;;0.60;;
43509;SDS011;29105;57.764;40.952;2023-03-23T00:36:58;1.45;;;0.52;;
43509;SDS011;29105;57.764;40.952;2023-03-23T00:39:25;1.50;;;0.40;;
43509;SDS011;29105;57.764;40.952;2023-03-23T00:41:52;3.13;;;0.65;;
43509;SDS011;29105;57.764;40.952;2023-03-23T00:44:19;0.55;;;0.40;;
43509;SDS011;29105;57.764;40.952;2023-03-23T00:46:49;1.05;;;0.35;;
43509;SDS011;29105;57.764;40.952;2023-03-23T00:49:19;2.60;;;0.40;;
43509;SDS011;29105;57.764;40.952;2023-03-23T00:51:49;0.80;;;0.40;;
43509;SDS011;29105;57.764;40.952;2023-03-23T00:54:15;2.28;;;0.60;;
43509;SDS011;29105;57.764;40.952;2023-03-23T00:56:40;0.70;;;0.43;;
43509;SDS011;29105;57.764;40.952;2023-03-23T00:59:06;2.90;;;0.85;;
43509;SDS011;29105;57.764;40.952;2023-03-23T01:01:32;2.90;;;0.40;;
43509;SDS011;29105;57.764;40.952;2023-03-23T01:03:58;1.20;;;0.40;;
43509;SDS011;29105;57.764;40.952;2023-03-23T01:06:35;4.70;;;0.90;;
43509;SDS011;29105;57.764;40.952;2023-03-23T01:09:06;0.73;;;0.40;;
43509;SDS011;29105;57.764;40.952;2023-03-23T01:11:33;1.35;;;1.00;;
43509;SDS011;29105;57.764;40.952;2023-03-23T01:13:59;1.02;;;0.50;;
43509;SDS011;29105;57.764;40.952;2023-03-23T01:16:25;1.02;;;0.50;;
43509;SDS011;29105;57.764;40.952;2023-03-23T01:18:50;1.13;;;0.57;;
43509;SDS011;29105;57.764;40.952;2023-03-23T01:21:17;1.48;;;0.90;;
43509;SDS011;29105;57.764;40.952;2023-03-23T01:23:44;1.60;;;0.88;;
43509;SDS011;29105;57.764;40.952;2023-03-23T01:26:14;1.20;;;0.40;;
43509;SDS011;29105;57.764;40.952;2023-03-23T01:28:42;1.52;;;0.50;;
43509;SDS011;29105;57.764;40.952;2023-03-23T01:31:10;1.27;;;0.70;;
43509;SDS011;29105;57.764;40.952;2023-03-23T01:33:40;1.33;;;0.73;;
43509;SDS011;29105;57.764;40.952;2023-03-23T01:36:08;1.88;;;0.60;;
43509;SDS011;29105;57.764;40.952;2023-03-23T01:38:36;2.53;;;0.60;;
43509;SDS011;29105;57.764;40.952;2023-03-23T01:41:02;1.30;;;0.45;;
43509;SDS011;29105;57.764;40.952;2023-03-23T01:43:29;3.13;;;0.52;;
43509;SDS011;29105;57.764;40.952;2023-03-23T01:45:55;2.08;;;0.68;;
43509;SDS011;29105;57.764;40.952;2023-03-23T01:53:26;1.10;;;0.52;;
43509;SDS011;29105;57.764;40.952;2023-03-23T01:55:55;1.42;;;0.95;;
43509;SDS011;29105;57.764;40.952;2023-03-23T01:58:23;1.55;;;0.95;;
43509;SDS011;29105;57.764;40.952;2023-03-23T02:00:53;0.80;;;0.50;;
43509;SDS011;29105;57.764;40.952;2023-03-23T02:03:20;1.20;;;0.60;;
43509;SDS011;29105;57.764;40.952;2023-03-23T02:05:48;1.75;;;0.95;;
43509;SDS011;29105;57.764;40.952;2023-03-23T02:08:14;2.35;;;0.90;;
43509;SDS011;29105;57.764;40.952;2023-03-23T02:10:41;1.17;;;0.80;;
43509;SDS011;29105;57.764;40.952;2023-03-23T02:13:07;1.67;;;0.70;;
43509;SDS011;29105;57.764;40.952;2023-03-23T02:15:43;2.05;;;1.10;;
43509;SDS011;29105;57.764;40.952;2023-03-23T02:26:27;1.23;;;0.55;;
43509;SDS011;29105;57.764;40.952;2023-03-23T02:35:08;1.77;;;1.10;;
43509;SDS011;29105;57.764;40.952;2023-03-23T02:38:04;2.00;;;0.93;;
43509;SDS011;29105;57.764;40.952;2023-03-23T02:40:36;3.28;;;0.93;;
43509;SDS011;29105;57.764;40.952;2023-03-23T02:43:09;2.50;;;0.98;;
43509;SDS011;29105;57.764;40.952;2023-03-23T02:45:37;1.80;;;1.05;;
43509;SDS011;29105;57.764;40.952;2023-03-23T02:48:04;1.10;;;0.63;;
43509;SDS011;29105;57.764;40.952;2023-03-23T02:50:30;0.47;;;0.30;;
43509;SDS011;29105;57.764;40.952;2023-03-23T02:52:57;2.25;;;0.60;;
43509;SDS011;29105;57.764;40.952;2023-03-23T02:55:24;2.95;;;1.23;;
43509;SDS011;29105;57.764;40.952;2023-03-23T02:57:51;1.77;;;1.20;;
43509;SDS011;29105;57.764;40.952;2023-03-23T03:00:18;0.98;;;0.52;;
43509;SDS011;29105;57.764;40.952;2023-03-23T03:02:54;1.40;;;0.60;;
43509;SDS011;29105;57.764;40.952;2023-03-23T03:05:25;2.65;;;0.85;;
43509;SDS011;29105;57.764;40.952;2023-03-23T03:18:28;1.40;;;0.65;;
43509;SDS011;29105;57.764;40.952;2023-03-23T03:21:02;1.35;;;0.57;;
43509;SDS011;29105;57.764;40.952;2023-03-23T03:23:31;1.63;;;1.08;;
43509;SDS011;29105;57.764;40.952;2023-03-23T03:25:58;3.47;;;0.95;;
43509;SDS011;29105;57.764;40.952;2023-03-23T03:28:26;1.02;;;0.55;;
43509;SDS011;29105;57.764;40.952;2023-03-23T03:30:56;1.20;;;0.90;;
43509;SDS011;29105;57.764;40.952;2023-03-23T03:33:23;4.05;;;0.88;;
43509;SDS011;29105;57.764;40.952;2023-03-23T03:35:55;1.77;;;0.73;;
43509;SDS011;29105;57.764;40.952;2023-03-23T03:38:22;4.15;;;1.30;;
43509;SDS011;29105;57.764;40.952;2023-03-23T03:40:48;1.48;;;0.70;;
43509;SDS011;29105;57.764;40.952;2023-03-23T03:43:15;1.00;;;0.50;;
43509;SDS011;29105;57.764;40.952;2023-03-23T03:45:41;2.22;;;0.98;;
43509;SDS011;29105;57.764;40.952;2023-03-23T03:48:07;1.55;;;0.93;;
43509;SDS011;29105;57.764;40.952;2023-03-23T03:50:33;3.33;;;0.90;;
43509;SDS011;29105;57.764;40.952;2023-03-23T03:52:58;2.72;;;0.88;;
43509;SDS011;29105;57.764;40.952;2023-03-23T03:55:24;1.35;;;0.68;;
43509;SDS011;29105;57.764;40.952;2023-03-23T03:57:50;1.70;;;1.02;;
43509;SDS011;29105;57.764;40.952;2023-03-23T04:00:16;2.92;;;1.10;;
43509;SDS011;29105;57.764;40.952;2023-03-23T04:02:42;2.22;;;0.95;;
43509;SDS011;29105;57.764;40.952;2023-03-23T04:05:12;1.75;;;0.60;;
43509;SDS011;29105;57.764;40.952;2023-03-23T04:07:38;2.05;;;0.82;;
43509;SDS011;29105;57.764;40.952;2023-03-23T04:10:06;2.50;;;1.10;;
43509;SDS011;29105;57.764;40.952;2023-03-23T04:12:33;1.10;;;0.73;;
43509;SDS011;29105;57.764;40.952;2023-03-23T04:14:59;2.22;;;1.00;;
43509;SDS011;29105;57.764;40.952;2023-03-23T04:17:25;2.67;;;0.88;;
43509;SDS011;29105;57.764;40.952;2023-03-23T04:19:54;1.25;;;0.77;;
43509;SDS011;29105;57.764;40.952;2023-03-23T04:22:22;4.28;;;1.20;;
43509;SDS011;29105;57.764;40.952;2023-03-23T04:25:01;2.05;;;1.13;;
43509;SDS011;29105;57.764;40.952;2023-03-23T04:27:31;1.35;;;0.93;;
43509;SDS011;29105;57.764;40.952;2023-03-23T04:29:57;1.33;;;0.65;;
43509;SDS011;29105;57.764;40.952;2023-03-23T04:32:27;2.55;;;1.13;;
43509;SDS011;29105;57.764;40.952;2023-03-23T04:34:57;1.73;;;0.77;;
43509;SDS011;29105;57.764;40.952;2023-03-23T04:37:25;1.80;;;0.85;;
43509;SDS011;29105;57.764;40.952;2023-03-23T04:39:54;1.45;;;0.50;;
43509;SDS011;29105;57.764;40.952;2023-03-23T04:42:28;2.45;;;1.00;;
43509;SDS011;29105;57.764;40.952;2023-03-23T04:44:56;1.45;;;0.70;;
43509;SDS011;29105;57.764;40.952;2023-03-23T04:47:23;1.17;;;0.80;;
43509;SDS011;29105;57.764;40.952;2023-03-23T04:49:49;1.85;;;0.95;;
43509;SDS011;29105;57.764;40.952;2023-03-23T04:52:16;1.33;;;0.57;;
43509;SDS011;29105;57.764;40.952;2023-03-23T04:54:42;1.85;;;0.68;;
43509;SDS011;29105;57.764;40.952;2023-03-23T04:57:09;2.25;;;0.93;;
43509;SDS011;29105;57.764;40.952;2023-03-23T04:59:35;1.52;;;0.50;;
43509;SDS011;29105;57.764;40.952;2023-03-23T05:02:00;1.65;;;0.93;;
43509;SDS011;29105;57.764;40.952;2023-03-23T05:04:26;2.80;;;0.80;;
43509;SDS011;29105;57.764;40.952;2023-03-23T05:06:52;2.50;;;0.70;;
43509;SDS011;29105;57.764;40.952;2023-03-23T05:09:18;2.83;;;0.75;;
43509;SDS011;29105;57.764;40.952;2023-03-23T05:11:44;1.70;;;0.60;;
43509;SDS011;29105;57.764;40.952;2023-03-23T05:14:11;1.38;;;0.57;;
43509;SDS011;29105;57.764;40.952;2023-03-23T05:16:36;0.90;;;0.52;;
43509;SDS011;29105;57.764;40.952;2023-03-23T05:19:03;1.35;;;0.50;;
43509;SDS011;29105;57.764;40.952;2023-03-23T05:21:30;1.83;;;1.02;;
43509;SDS011;29105;57.764;40.952;2023-03-23T05:23:56;1.55;;;0.50;;
43509;SDS011;29105;57.764;40.952;2023-03-23T05:26:26;1.25;;;0.77;;
43509;SDS011;29105;57.764;40.952;2023-03-23T05:28:55;3.33;;;0.63;;
43509;SDS011;29105;57.764;40.952;2023-03-23T05:31:21;1.42;;;0.68;;
43509;SDS011;29105;57.764;40.952;2023-03-23T05:33:48;1.70;;;0.38;;
43509;SDS011;29105;57.764;40.952;2023-03-23T05:36:13;1.00;;;0.43;;
43509;SDS011;29105;57.764;40.952;2023-03-23T05:38:40;4.53;;;0.50;;
43509;SDS011;29105;57.764;40.952;2023-03-23T05:41:10;1.08;;;0.60;;
43509;SDS011;29105;57.764;40.952;2023-03-23T05:43:37;0.80;;;0.40;;
43509;SDS011;29105;57.764;40.952;2023-03-23T05:46:03;1.30;;;0.40;;
43509;SDS011;29105;57.764;40.952;2023-03-23T05:48:28;1.83;;;0.60;;
43509;SDS011;29105;57.764;40.952;2023-03-23T05:50:54;5.80;;;0.88;;
43509;SDS011;29105;57.764;40.952;2023-03-23T05:53:20;4.22;;;0.70;;
43509;SDS011;29105;57.764;40.952;2023-03-23T05:55:45;1.20;;;0.40;;
43509;SDS011;29105;57.764;40.952;2023-03-23T05:58:12;1.40;;;0.50;;
43509;SDS011;29105;57.764;40.952;2023-03-23T06:00:38;2.33;;;0.57;;
43509;SDS011;29105;57.764;40.952;2023-03-23T06:03:04;3.53;;;0.93;;
43509;SDS011;29105;57.764;40.952;2023-03-23T06:05:30;2.45;;;0.70;;
43509;SDS011;29105;57.764;40.952;2023-03-23T06:07:55;4.13;;;0.82;;
43509;SDS011;29105;57.764;40.952;2023-03-23T06:10:21;2.03;;;0.50;;
43509;SDS011;29105;57.764;40.952;2023-03-23T06:12:49;1.63;;;0.45;;
43509;SDS011;29105;57.764;40.952;2023-03-23T06:15:16;1.10;;;0.60;;
43509;SDS011;29105;57.764;40.952;2023-03-23T06:17:42;2.20;;;0.60;;
43509;SDS011;29105;57.764;40.952;2023-03-23T06:20:08;2.22;;;0.65;;
43509;SDS011;29105;57.764;40.952;2023-03-23T06:22:38;1.73;;;0.50;;
43509;SDS011;29105;57.764;40.952;2023-03-23T06:25:08;2.97;;;0.85;;
43509;SDS011;29105;57.764;40.952;2023-03-23T06:27:36;2.60;;;0.68;;
43509;SDS011;29105;57.764;40.952;2023-03-23T06:30:03;1.83;;;0.40;;
43509;SDS011;29105;57.764;40.952;2023-03-23T06:32:30;1.48;;;0.75;;
43509;SDS011;29105;57.764;40.952;2023-03-23T06:34:57;3.30;;;0.40;;
43509;SDS011;29105;57.764;40.952;2023-03-23T06:37:23;1.92;;;0.40;;
43509;SDS011;29105;57.764;40.952;2023-03-23T06:39:49;1.00;;;0.43;;
43509;SDS011;29105;57.764;40.952;2023-03-23T06:42:16;1.98;;;0.90;;
43509;SDS011;29105;57.764;40.952;2023-03-23T06:44:43;5.00;;;0.30;;
43509;SDS011;29105;57.764;40.952;2023-03-23T06:47:09;1.33;;;0.60;;
43509;SDS011;29105;57.764;40.952;2023-03-23T06:49:34;3.53;;;0.80;;
43509;SDS011;29105;57.764;40.952;2023-03-23T06:52:00;1.92;;;0.88;;
43509;SDS011;29105;57.764;40.952;2023-03-23T06:54:28;1.10;;;0.60;;
43509;SDS011;29105;57.764;40.952;2023-03-23T06:56:54;3.17;;;0.77;;
43509;SDS011;29105;57.764;40.952;2023-03-23T06:59:20;3.95;;;1.17;;
43509;SDS011;29105;57.764;40.952;2023-03-23T07:01:46;3.17;;;0.70;;
43509;SDS011;29105;57.764;40.952;2023-03-23T07:04:11;0.77;;;0.30;;
43509;SDS011;29105;57.764;40.952;2023-03-23T07:06:38;1.88;;;0.60;;
43509;SDS011;29105;57.764;40.952;2023-03-23T07:09:04;2.08;;;0.40;;
43509;SDS011;29105;57.764;40.952;2023-03-23T07:11:29;2.00;;;0.80;;
43509;SDS011;29105;57.764;40.952;2023-03-23T07:13:55;3.92;;;0.77;;
43509;SDS011;29105;57.764;40.952;2023-03-23T07:16:21;1.77;;;0.70;;
43509;SDS011;29105;57.764;40.952;2023-03-23T07:18:47;2.15;;;1.10;;
43509;SDS011;29105;57.764;40.952;2023-03-23T07:21:12;1.70;;;0.65;;
43509;SDS011;29105;57.764;40.952;2023-03-23T07:23:38;3.13;;;0.75;;
43509;SDS011;29105;57.764;40.952;2023-03-23T07:26:04;3.20;;;1.05;;
43509;SDS011;29105;57.764;40.952;2023-03-23T07:28:29;2.83;;;0.80;;
43509;SDS011;29105;57.764;40.952;2023-03-23T07:30:55;2.40;;;1.25;;
43509;SDS011;29105;57.764;40.952;2023-03-23T07:33:21;1.90;;;0.98;;
43509;SDS011;29105;57.764;40.952;2023-03-23T07:35:47;7.55;;;0.95;;
43509;SDS011;29105;57.764;40.952;2023-03-23T07:38:13;2.95;;;0.90;;
43509;SDS011;29105;57.764;40.952;2023-03-23T07:40:39;1.63;;;0.98;;
43509;SDS011;29105;57.764;40.952;2023-03-23T07:43:05;5.25;;;1.00;;
43509;SDS011;29105;57.764;40.952;2023-03-23T07:45:32;2.25;;;1.08;;
43509;SDS011;29105;57.764;40.952;2023-03-23T07:47:58;2.60;;;1.10;;
43509;SDS011;29105;57.764;40.952;2023-03-23T07:50:24;1.00;;;0.60;;
43509;SDS011;29105;57.764;40.952;2023-03-23T07:52:54;3.38;;;0.70;;
43509;SDS011;29105;57.764;40.952;2023-03-23T07:55:20;4.47;;;0.85;;
43509;SDS011;29105;57.764;40.952;2023-03-23T07:57:47;5.70;;;2.28;;
43509;SDS011;29105;57.764;40.952;2023-03-23T08:00:16;5.53;;;0.65;;
43509;SDS011;29105;57.764;40.952;2023-03-23T08:02:52;4.97;;;1.10;;
43509;SDS011;29105;57.764;40.952;2023-03-23T08:05:23;1.38;;;0.70;;
43509;SDS011;29105;57.764;40.952;2023-03-23T08:07:52;2.05;;;0.90;;
43509;SDS011;29105;57.764;40.952;2023-03-23T08:10:19;1.98;;;0.70;;
43509;SDS011;29105;57.764;40.952;2023-03-23T08:12:49;5.25;;;1.70;;
43509;SDS011;29105;57.764;40.952;2023-03-23T08:15:17;7.82;;;2.00;;
43509;SDS011;29105;57.764;40.952;2023-03-23T08:17:43;9.18;;;2.45;;
43509;SDS011;29105;57.764;40.952;2023-03-23T08:20:10;3.25;;;1.60;;
43509;SDS011;29105;57.764;40.952;2023-03-23T08:22:42;2.92;;;0.80;;
43509;SDS011;29105;57.764;40.952;2023-03-23T08:25:10;4.55;;;1.35;;
43509;SDS011;29105;57.764;40.952;2023-03-23T08:27:38;2.25;;;0.70;;
43509;SDS011;29105;57.764;40.952;2023-03-23T08:30:09;2.90;;;1.20;;
43509;SDS011;29105;57.764;40.952;2023-03-23T08:32:37;2.08;;;0.90;;
43509;SDS011;29105;57.764;40.952;2023-03-23T08:35:04;1.42;;;0.60;;
43509;SDS011;29105;57.764;40.952;2023-03-23T08:37:30;3.15;;;0.77;;
43509;SDS011;29105;57.764;40.952;2023-03-23T08:39:55;1.60;;;0.52;;
43509;SDS011;29105;57.764;40.952;2023-03-23T08:42:25;7.30;;;1.85;;
43509;SDS011;29105;57.764;40.952;2023-03-23T08:44:51;1.40;;;0.77;;
43509;SDS011;29105;57.764;40.952;2023-03-23T08:47:17;4.72;;;0.70;;
43509;SDS011;29105;57.764;40.952;2023-03-23T08:49:43;1.63;;;0.65;;
43509;SDS011;29105;57.764;40.952;2023-03-23T08:52:10;1.33;;;0.73;;
43509;SDS011;29105;57.764;40.952;2023-03-23T08:54:36;3.80;;;1.33;;
43509;SDS011;29105;57.764;40.952;2023-03-23T08:57:03;3.78;;;1.75;;
43509;SDS011;29105;57.764;40.952;2023-03-23T08:59:29;4.10;;;0.95;;
43509;SDS011;29105;57.764;40.952;2023-03-23T09:01:55;2.08;;;0.90;;
43509;SDS011;29105;57.764;40.952;2023-03-23T09:04:21;3.88;;;1.23;;
43509;SDS011;29105;57.764;40.952;2023-03-23T09:06:47;6.35;;;1.70;;
43509;SDS011;29105;57.764;40.952;2023-03-23T09:09:12;2.75;;;1.05;;
43509;SDS011;29105;57.764;40.952;2023-03-23T09:11:39;2.50;;;1.30;;
43509;SDS011;29105;57.764;40.952;2023-03-23T09:14:05;1.65;;;0.90;;
43509;SDS011;29105;57.764;40.952;2023-03-23T09:16:32;2.55;;;1.08;;
43509;SDS011;29105;57.764;40.952;2023-03-23T09:18:59;2.95;;;1.30;;
43509;SDS011;29105;57.764;40.952;2023-03-23T09:21:25;4.07;;;2.35;;
43509;SDS011;29105;57.764;40.952;2023-03-23T09:23:52;3.78;;;1.98;;
43509;SDS011;29105;57.764;40.952;2023-03-23T09:26:17;2.38;;;1.60;;
43509;SDS011;29105;57.764;40.952;2023-03-23T09:28:43;3.45;;;0.90;;
43509;SDS011;29105;57.764;40.952;2023-03-23T09:31:10;4.25;;;1.92;;
43509;SDS011;29105;57.764;40.952;2023-03-23T09:33:37;3.03;;;1.20;;
43509;SDS011;29105;57.764;40.952;2023-03-23T09:36:03;5.85;;;1.02;;
43509;SDS011;29105;57.764;40.952;2023-03-23T09:38:30;2.03;;;0.82;;
43509;SDS011;29105;57.764;40.952;2023-03-23T09:49:22;1.85;;;0.90;;
43509;SDS011;29105;57.764;40.952;2023-03-23T09:51:59;1.60;;;0.95;;
43509;SDS011;29105;57.764;40.952;2023-03-23T09:54:33;1.65;;;0.75;;
43509;SDS011;29105;57.764;40.952;2023-03-23T09:57:05;1.85;;;0.80;;
43509;SDS011;29105;57.764;40.952;2023-03-23T10:03:02;2.53;;;1.00;;
43509;SDS011;29105;57.764;40.952;2023-03-23T10:05:36;2.55;;;1.38;;
43509;SDS011;29105;57.764;40.952;2023-03-23T10:13:50;2.50;;;1.20;;
43509;SDS011;29105;57.764;40.952;2023-03-23T10:16:21;2.95;;;0.70;;
43509;SDS011;29105;57.764;40.952;2023-03-23T10:21:55;2.75;;;1.67;;
43509;SDS011;29105;57.764;40.952;2023-03-23T10:24:45;1.50;;;0.75;;
43509;SDS011;29105;57.764;40.952;2023-03-23T10:27:33;3.38;;;1.35;;
43509;SDS011;29105;57.764;40.952;2023-03-23T10:30:10;4.75;;;0.85;;
43509;SDS011;29105;57.764;40.952;2023-03-23T10:32:44;3.20;;;1.23;;
43509;SDS011;29105;57.764;40.952;2023-03-23T10:35:18;1.33;;;0.70;;
43509;SDS011;29105;57.764;40.952;2023-03-23T10:37:48;3.50;;;1.65;;
43509;SDS011;29105;57.764;40.952;2023-03-23T10:40:18;1.42;;;0.55;;
43509;SDS011;29105;57.764;40.952;2023-03-23T10:42:50;2.25;;;1.10;;
43509;SDS011;29105;57.764;40.952;2023-03-23T10:45:23;2.90;;;1.40;;
43509;SDS011;29105;57.764;40.952;2023-03-23T10:47:56;2.70;;;0.63;;
43509;SDS011;29105;57.764;40.952;2023-03-23T10:50:38;1.35;;;0.60;;
43509;SDS011;29105;57.764;40.952;2023-03-23T10:53:11;5.57;;;1.88;;
43509;SDS011;29105;57.764;40.952;2023-03-23T10:55:41;3.92;;;1.63;;
43509;SDS011;29105;57.764;40.952;2023-03-23T10:58:09;4.32;;;1.17;;
43509;SDS011;29105;57.764;40.952;2023-03-23T11:00:41;2.83;;;1.27;;
43509;SDS011;29105;57.764;40.952;2023-03-23T11:05:50;4.05;;;1.50;;
43509;SDS011;29105;57.764;40.952;2023-03-23T11:08:38;2.05;;;1.00;;
43509;SDS011;29105;57.764;40.952;2023-03-23T11:11:20;2.72;;;1.27;;
43509;SDS011;29105;57.764;40.952;2023-03-23T11:13:55;4.70;;;2.00;;
43509;SDS011;29105;57.764;40.952;2023-03-23T11:16:27;4.22;;;2.03;;
43509;SDS011;29105;57.764;40.952;2023-03-23T11:18:57;4.65;;;1.17;;
43509;SDS011;29105;57.764;40.952;2023-03-23T11:21:24;1.15;;;0.68;;
43509;SDS011;29105;57.764;40.952;2023-03-23T11:24:00;3.83;;;1.17;;
43509;SDS011;29105;57.764;40.952;2023-03-23T11:26:27;3.78;;;1.40;;
43509;SDS011;29105;57.764;40.952;2023-03-23T11:31:34;1.83;;;0.80;;
43509;SDS011;29105;57.764;40.952;2023-03-23T11:36:42;6.20;;;1.10;;
43509;SDS011;29105;57.764;40.952;2023-03-23T11:39:23;2.05;;;0.73;;
43509;SDS011;29105;57.764;40.952;2023-03-23T11:41:54;4.18;;;1.05;;
43509;SDS011;29105;57.764;40.952;2023-03-23T11:44:23;3.85;;;1.58;;
43509;SDS011;29105;57.764;40.952;2023-03-23T11:52:46;2.83;;;1.52;;
43509;SDS011;29105;57.764;40.952;2023-03-23T11:55:18;5.40;;;1.60;;
43509;SDS011;29105;57.764;40.952;2023-03-23T11:58:00;3.65;;;1.08;;
43509;SDS011;29105;57.764;40.952;2023-03-23T12:00:35;6.10;;;1.92;;
43509;SDS011;29105;57.764;40.952;2023-03-23T12:06:13;3.22;;;2.13;;
43509;SDS011;29105;57.764;40.952;2023-03-23T12:09:10;4.32;;;1.70;;
43509;SDS011;29105;57.764;40.952;2023-03-23T12:12:04;2.33;;;0.75;;
43509;SDS011;29105;57.764;40.952;2023-03-23T12:17:29;3.78;;;1.20;;
43509;SDS011;29105;57.764;40.952;2023-03-23T12:20:20;5.13;;;1.00;;
43509;SDS011;29105;57.764;40.952;2023-03-23T12:31:24;4.00;;;1.23;;
43509;SDS011;29105;57.764;40.952;2023-03-23T12:40:12;5.22;;;1.83;;
43509;SDS011;29105;57.764;40.952;2023-03-23T12:48:28;7.70;;;3.63;;
43509;SDS011;29105;57.764;40.952;2023-03-23T12:51:02;5.10;;;2.83;;
43509;SDS011;29105;57.764;40.952;2023-03-23T12:53:31;4.50;;;2.53;;
43509;SDS011;29105;57.764;40.952;2023-03-23T12:58:28;3.75;;;1.60;;
43509;SDS011;29105;57.764;40.952;2023-03-23T13:06:07;2.78;;;1.67;;
43509;SDS011;29105;57.764;40.952;2023-03-23T13:08:56;3.20;;;1.77;;
43509;SDS011;29105;57.764;40.952;2023-03-23T13:14:10;4.03;;;1.05;;
43509;SDS011;29105;57.764;40.952;2023-03-23T13:19:19;3.85;;;1.45;;
43509;SDS011;29105;57.764;40.952;2023-03-23T13:21:53;9.45;;;2.67;;
43509;SDS011;29105;57.764;40.952;2023-03-23T13:24:29;4.43;;;2.08;;
43509;SDS011;29105;57.764;40.952;2023-03-23T13:26:55;2.13;;;1.40;;
43509;SDS011;29105;57.764;40.952;2023-03-23T13:29:23;5.15;;;2.17;;
43509;SDS011;29105;57.764;40.952;2023-03-23T13:31:50;5.25;;;2.70;;
43509;SDS011;29105;57.764;40.952;2023-03-23T13:34:29;2.53;;;1.08;;
43509;SDS011;29105;57.764;40.952;2023-03-23T13:36:57;4.00;;;1.70;;
43509;SDS011;29105;57.764;40.952;2023-03-23T13:39:38;4.70;;;2.83;;
43509;SDS011;29105;57.764;40.952;2023-03-23T13:42:25;3.83;;;2.38;;
43509;SDS011;29105;57.764;40.952;2023-03-23T13:45:04;8.18;;;1.95;;
43509;SDS011;29105;57.764;40.952;2023-03-23T13:47:37;4.05;;;2.47;;
43509;SDS011;29105;57.764;40.952;2023-03-23T13:57:51;8.38;;;2.40;;
43509;SDS011;29105;57.764;40.952;2023-03-23T14:01:13;4.22;;;1.73;;
43509;SDS011;29105;57.764;40.952;2023-03-23T14:03:13;2.42;;;1.52;;
43509;SDS011;29105;57.764;40.952;2023-03-23T14:08:25;7.18;;;2.10;;
43509;SDS011;29105;57.764;40.952;2023-03-23T14:11:10;3.33;;;2.30;;
43509;SDS011;29105;57.764;40.952;2023-03-23T14:13:45;5.72;;;2.05;;
43509;SDS011;29105;57.764;40.952;2023-03-23T14:16:22;3.78;;;2.03;;
43509;SDS011;29105;57.764;40.952;2023-03-23T14:19:00;4.45;;;2.25;;
43509;SDS011;29105;57.764;40.952;2023-03-23T14:21:32;7.25;;;2.90;;
43509;SDS011;29105;57.764;40.952;2023-03-23T14:24:09;6.63;;;3.03;;
43509;SDS011;29105;57.764;40.952;2023-03-23T14:26:36;5.80;;;3.20;;
43509;SDS011;29105;57.764;40.952;2023-03-23T14:29:03;5.38;;;3.03;;
43509;SDS011;29105;57.764;40.952;2023-03-23T14:31:29;7.97;;;2.45;;
43509;SDS011;29105;57.764;40.952;2023-03-23T14:33:56;6.93;;;2.33;;
43509;SDS011;29105;57.764;40.952;2023-03-23T14:36:22;5.57;;;2.50;;
43509;SDS011;29105;57.764;40.952;2023-03-23T14:41:31;6.32;;;3.08;;
43509;SDS011;29105;57.764;40.952;2023-03-23T14:43:59;8.05;;;3.35;;
43509;SDS011;29105;57.764;40.952;2023-03-23T14:46:25;6.00;;;2.35;;
43509;SDS011;29105;57.764;40.952;2023-03-23T14:48:52;5.40;;;2.25;;
43509;SDS011;29105;57.764;40.952;2023-03-23T14:51:18;6.22;;;2.25;;
43509;SDS011;29105;57.764;40.952;2023-03-23T14:53:45;4.65;;;1.65;;
43509;SDS011;29105;57.764;40.952;2023-03-23T14:56:16;5.97;;;3.33;;
43509;SDS011;29105;57.764;40.952;2023-03-23T14:58:47;4.38;;;2.53;;
43509;SDS011;29105;57.764;40.952;2023-03-23T15:01:16;5.93;;;2.78;;
43509;SDS011;29105;57.764;40.952;2023-03-23T15:04:01;4.53;;;2.00;;
43509;SDS011;29105;57.764;40.952;2023-03-23T15:06:31;4.30;;;1.95;;
43509;SDS011;29105;57.764;40.952;2023-03-23T15:09:00;10.82;;;2.13;;
43509;SDS011;29105;57.764;40.952;2023-03-23T15:11:34;11.65;;;3.92;;
43509;SDS011;29105;57.764;40.952;2023-03-23T15:14:14;4.22;;;1.67;;
43509;SDS011;29105;57.764;40.952;2023-03-23T15:16:49;4.57;;;2.00;;
43509;SDS011;29105;57.764;40.952;2023-03-23T15:19:23;4.68;;;2.22;;
43509;SDS011;29105;57.764;40.952;2023-03-23T15:21:52;7.07;;;3.33;;
43509;SDS011;29105;57.764;40.952;2023-03-23T15:24:20;8.43;;;2.03;;
43509;SDS011;29105;57.764;40.952;2023-03-23T15:32:13;7.03;;;1.33;;
43509;SDS011;29105;57.764;40.952;2023-03-23T15:34:38;3.00;;;1.20;;
43509;SDS011;29105;57.764;40.952;2023-03-23T15:37:06;6.43;;;2.42;;
43509;SDS011;29105;57.764;40.952;2023-03-23T15:39:42;7.18;;;2.22;;
43509;SDS011;29105;57.764;40.952;2023-03-23T15:42:20;7.40;;;2.47;;
43509;SDS011;29105;57.764;40.952;2023-03-23T15:47:37;4.35;;;1.73;;
43509;SDS011;29105;57.764;40.952;2023-03-23T15:50:11;6.10;;;2.03;;
43509;SDS011;29105;57.764;40.952;2023-03-23T15:52:37;4.05;;;1.63;;
43509;SDS011;29105;57.764;40.952;2023-03-23T15:55:14;3.88;;;1.73;;
43509;SDS011;29105;57.764;40.952;2023-03-23T15:57:45;3.40;;;1.55;;
43509;SDS011;29105;57.764;40.952;2023-03-23T16:00:10;3.22;;;1.70;;
43509;SDS011;29105;57.764;40.952;2023-03-23T16:02:37;2.42;;;1.60;;
43509;SDS011;29105;57.764;40.952;2023-03-23T16:05:03;5.45;;;2.28;;
43509;SDS011;29105;57.764;40.952;2023-03-23T16:07:29;4.28;;;1.65;;
43509;SDS011;29105;57.764;40.952;2023-03-23T16:09:55;6.50;;;1.38;;
43509;SDS011;29105;57.764;40.952;2023-03-23T16:12:21;6.55;;;2.80;;
43509;SDS011;29105;57.764;40.952;2023-03-23T16:14:46;3.80;;;1.33;;
43509;SDS011;29105;57.764;40.952;2023-03-23T16:17:17;3.92;;;2.03;;
43509;SDS011;29105;57.764;40.952;2023-03-23T16:19:45;3.50;;;1.42;;
43509;SDS011;29105;57.764;40.952;2023-03-23T16:22:11;3.53;;;1.75;;
43509;SDS011;29105;57.764;40.952;2023-03-23T16:24:37;4.45;;;2.08;;
43509;SDS011;29105;57.764;40.952;2023-03-23T16:27:02;2.42;;;1.08;;
43509;SDS011;29105;57.764;40.952;2023-03-23T16:29:28;4.03;;;1.65;;
43509;SDS011;29105;57.764;40.952;2023-03-23T16:31:54;5.30;;;2.50;;
43509;SDS011;29105;57.764;40.952;2023-03-23T16:34:20;3.10;;;2.38;;
43509;SDS011;29105;57.764;40.952;2023-03-23T16:36:45;3.17;;;1.40;;
43509;SDS011;29105;57.764;40.952;2023-03-23T16:39:11;4.43;;;2.45;;
43509;SDS011;29105;57.764;40.952;2023-03-23T16:41:37;4.93;;;1.38;;
43509;SDS011;29105;57.764;40.952;2023-03-23T16:44:02;4.32;;;1.58;;
43509;SDS011;29105;57.764;40.952;2023-03-23T16:46:28;5.07;;;2.60;;
43509;SDS011;29105;57.764;40.952;2023-03-23T16:48:54;3.58;;;2.53;;
43509;SDS011;29105;57.764;40.952;2023-03-23T16:51:20;7.90;;;2.63;;